createdAt,value
2018-05-06T00:02:23.209Z,2.93
2018-05-06T00:05:25.769Z,3.20
2018-05-06T00:08:28.319Z,3.00
2018-05-06T00:11:30.861Z,3.17
2018-05-06T00:14:33.324Z,3.50
2018-05-06T00:17:35.811Z,3.10
2018-05-06T00:20:38.273Z,3.00
2018-05-06T00:23:40.761Z,4.00
2018-05-06T00:26:43.253Z,3.40
2018-05-06T00:29:45.729Z,3.33
2018-05-06T00:32:48.220Z,3.63
2018-05-06T00:35:50.794Z,3.27
2018-05-06T00:38:53.365Z,3.00
2018-05-06T00:41:55.829Z,3.20
2018-05-06T00:44:58.370Z,3.10
2018-05-06T00:48:00.855Z,2.60
2018-05-06T00:51:03.332Z,3.30
2018-05-06T00:54:26.525Z,3.03
2018-05-06T00:57:29.099Z,3.60
2018-05-06T01:00:31.553Z,2.67
2018-05-06T01:03:34.052Z,3.47
2018-05-06T01:06:36.500Z,3.43
2018-05-06T01:09:39.000Z,2.90
2018-05-06T01:12:41.515Z,3.33
2018-05-06T01:15:44.069Z,3.00
2018-05-06T01:18:46.569Z,3.37
2018-05-06T01:21:49.052Z,3.13
2018-05-06T01:24:51.536Z,3.07
2018-05-06T01:27:53.940Z,2.73
2018-05-06T01:30:56.410Z,2.50
2018-05-06T01:33:58.924Z,2.77
2018-05-06T01:37:01.401Z,3.00
2018-05-06T01:40:03.921Z,3.17
2018-05-06T01:43:06.408Z,2.77
2018-05-06T01:46:08.984Z,2.70
2018-05-06T01:52:20.254Z,2.73
2018-05-06T01:55:22.769Z,2.90
2018-05-06T01:58:25.215Z,2.90
2018-05-06T02:01:27.694Z,3.23
2018-05-06T02:04:30.190Z,3.10
2018-05-06T02:07:32.684Z,2.80
2018-05-06T02:10:35.136Z,2.83
2018-05-06T02:13:37.592Z,3.17
2018-05-06T02:16:40.046Z,4.10
2018-05-06T02:19:42.475Z,3.37
2018-05-06T02:22:44.946Z,2.87
2018-05-06T02:25:47.401Z,2.63
2018-05-06T02:28:49.890Z,3.97
2018-05-06T02:31:52.347Z,2.97
2018-05-06T02:34:54.942Z,3.10
2018-05-06T02:37:57.453Z,2.93
2018-05-06T02:40:59.906Z,2.93
2018-05-06T02:44:02.403Z,2.87
2018-05-06T02:47:04.833Z,3.20
2018-05-06T02:50:07.297Z,3.00
2018-05-06T02:53:09.740Z,3.10
2018-05-06T02:56:12.212Z,3.23
2018-05-06T02:59:14.665Z,2.93
2018-05-06T03:02:17.232Z,3.20
2018-05-06T03:05:19.637Z,3.30
2018-05-06T03:08:22.181Z,3.10
2018-05-06T03:11:24.622Z,3.03
2018-05-06T03:14:27.134Z,2.93
2018-05-06T03:17:29.608Z,3.33
2018-05-06T03:20:32.073Z,2.93
2018-05-06T03:23:34.528Z,3.10
2018-05-06T03:26:36.949Z,3.00
2018-05-06T03:29:39.414Z,3.33
2018-05-06T03:32:41.943Z,3.30
2018-05-06T03:35:44.391Z,3.07
2018-05-06T03:38:46.908Z,3.57
2018-05-06T03:41:49.342Z,3.00
2018-05-06T03:44:51.887Z,3.27
2018-05-06T03:47:54.362Z,3.60
2018-05-06T03:50:56.812Z,3.67
2018-05-06T03:53:59.288Z,3.40
2018-05-06T03:57:13.706Z,3.53
2018-05-06T04:00:28.052Z,3.40
2018-05-06T04:03:30.557Z,3.07
2018-05-06T04:06:33.052Z,3.53
2018-05-06T04:09:35.509Z,2.90
2018-05-06T04:12:37.995Z,2.97
2018-05-06T04:15:40.427Z,3.40
2018-05-06T04:18:43.001Z,3.63
2018-05-06T04:21:45.501Z,3.80
2018-05-06T04:24:47.980Z,4.50
2018-05-06T04:27:50.478Z,4.43
2018-05-06T04:30:52.938Z,4.10
2018-05-06T04:33:55.421Z,4.40
2018-05-06T04:36:58.812Z,4.33
2018-05-06T04:40:01.287Z,4.47
2018-05-06T04:43:03.753Z,4.47
2018-05-06T04:46:06.163Z,4.23
2018-05-06T04:49:08.644Z,4.17
2018-05-06T04:52:11.190Z,4.37
2018-05-06T04:55:13.724Z,4.07
2018-05-06T04:58:16.246Z,4.43
2018-05-06T05:01:18.711Z,3.80
2018-05-06T05:04:21.204Z,4.03
2018-05-06T05:07:23.674Z,3.63
2018-05-06T05:10:26.145Z,4.10
2018-05-06T05:13:28.624Z,4.33
2018-05-06T05:16:31.082Z,4.33
2018-05-06T05:19:33.558Z,3.90
2018-05-06T05:22:36.068Z,5.10
2018-05-06T05:25:38.538Z,4.33
2018-05-06T05:28:41.039Z,4.90
2018-05-06T05:31:43.484Z,5.00
2018-05-06T05:34:45.979Z,4.57
2018-05-06T05:37:48.534Z,4.40
2018-05-06T05:40:50.994Z,4.77
2018-05-06T05:43:53.462Z,5.20
2018-05-06T05:46:55.889Z,4.30
2018-05-06T05:49:58.380Z,4.40
2018-05-06T05:53:01.019Z,4.60
2018-05-06T05:56:03.577Z,3.77
2018-05-06T05:59:06.020Z,3.90
2018-05-06T06:02:08.488Z,4.07
2018-05-06T06:05:10.934Z,4.53
2018-05-06T06:08:13.426Z,4.00
2018-05-06T06:11:15.908Z,4.13
2018-05-06T06:14:18.441Z,3.70
2018-05-06T06:17:20.923Z,4.20
2018-05-06T06:20:23.437Z,3.80
2018-05-06T06:23:26.462Z,4.53
2018-05-06T06:26:28.948Z,4.10
2018-05-06T06:29:31.379Z,3.90
2018-05-06T06:32:33.847Z,4.33
2018-05-06T06:35:36.299Z,4.07
2018-05-06T06:38:38.824Z,4.40
2018-05-06T06:41:41.304Z,4.30
2018-05-06T06:44:43.758Z,4.50
2018-05-06T06:47:46.174Z,4.47
2018-05-06T06:50:48.664Z,3.80
2018-05-06T06:53:51.125Z,3.93
2018-05-06T06:56:53.673Z,4.23
2018-05-06T06:59:56.100Z,4.53
2018-05-06T07:02:58.633Z,4.60
2018-05-06T07:06:01.074Z,4.60
2018-05-06T07:09:03.618Z,4.23
2018-05-06T07:12:06.094Z,4.43
2018-05-06T07:15:09.070Z,4.83
2018-05-06T07:18:11.625Z,4.97
2018-05-06T07:21:14.094Z,4.43
2018-05-06T07:27:25.280Z,4.30
2018-05-06T07:30:27.746Z,4.20
2018-05-06T07:33:30.292Z,4.80
2018-05-06T07:36:32.945Z,4.10
2018-05-06T07:39:35.399Z,4.17
2018-05-06T07:42:37.913Z,4.23
2018-05-06T07:45:40.364Z,4.70
2018-05-06T07:48:42.820Z,3.83
2018-05-06T07:51:45.264Z,4.10
2018-05-06T07:54:47.766Z,3.77
2018-05-06T07:57:50.219Z,3.73
2018-05-06T08:00:52.730Z,3.80
2018-05-06T08:03:55.220Z,3.90
2018-05-06T08:06:57.700Z,3.90
2018-05-06T08:10:00.216Z,3.60
2018-05-06T08:13:02.720Z,3.60
2018-05-06T08:16:05.185Z,3.80
2018-05-06T08:19:07.711Z,3.33
2018-05-06T08:22:10.175Z,3.70
2018-05-06T08:25:12.711Z,3.47
2018-05-06T08:28:15.165Z,3.80
2018-05-06T08:31:17.704Z,4.13
2018-05-06T08:34:20.231Z,3.43
2018-05-06T08:37:22.731Z,3.73
2018-05-06T08:40:25.195Z,4.10
2018-05-06T08:43:27.810Z,3.70
2018-05-06T08:46:30.337Z,4.03
2018-05-06T08:49:32.838Z,3.87
2018-05-06T08:52:35.373Z,3.87
2018-05-06T08:55:37.876Z,3.50
2018-05-06T08:58:40.339Z,3.60
2018-05-06T09:01:42.840Z,3.60
2018-05-06T09:04:45.327Z,3.47
2018-05-06T09:07:47.910Z,4.10
2018-05-06T09:10:50.521Z,3.70
2018-05-06T09:13:52.986Z,3.50
2018-05-06T09:16:55.415Z,3.33
2018-05-06T09:19:57.909Z,3.10
2018-05-06T09:23:00.385Z,3.60
2018-05-06T09:26:02.842Z,3.60
2018-05-06T09:29:05.360Z,3.00
2018-05-06T09:32:07.907Z,3.90
2018-05-06T09:35:10.397Z,3.50
2018-05-06T09:38:12.922Z,3.80
2018-05-06T09:41:15.441Z,3.17
2018-05-06T09:44:18.096Z,3.10
2018-05-06T09:47:20.581Z,3.00
2018-05-06T09:50:23.167Z,3.43
2018-05-06T09:53:25.838Z,3.40
2018-05-06T09:56:28.346Z,3.20
2018-05-06T09:59:30.837Z,3.03
2018-05-06T10:02:33.332Z,3.10
2018-05-06T10:05:35.797Z,3.27
2018-05-06T10:08:38.272Z,3.83
2018-05-06T10:11:40.770Z,4.30
2018-05-06T10:14:43.266Z,3.73
2018-05-06T10:17:45.821Z,3.70
2018-05-06T10:20:48.398Z,3.43
2018-05-06T10:23:51.012Z,3.13
2018-05-06T10:26:53.534Z,3.00
2018-05-06T10:29:55.991Z,2.80
2018-05-06T10:32:58.526Z,3.03
2018-05-06T10:36:01.005Z,2.67
2018-05-06T10:39:03.502Z,3.10
2018-05-06T10:42:05.988Z,3.00
2018-05-06T10:45:08.511Z,3.10
2018-05-06T10:48:10.964Z,2.90
2018-05-06T10:51:13.475Z,3.03
2018-05-06T10:54:15.975Z,3.10
2018-05-06T10:57:18.508Z,3.10
2018-05-06T11:00:20.968Z,2.90
2018-05-06T11:03:23.492Z,3.20
2018-05-06T11:06:25.952Z,3.03
2018-05-06T11:09:28.477Z,2.97
2018-05-06T11:12:30.966Z,3.03
2018-05-06T11:15:33.481Z,3.70
2018-05-06T11:18:35.969Z,3.03
2018-05-06T11:21:38.439Z,2.67
2018-05-06T11:24:40.934Z,3.27
2018-05-06T11:27:43.422Z,3.10
2018-05-06T11:30:45.849Z,3.10
2018-05-06T11:33:48.364Z,3.67
2018-05-06T11:36:50.877Z,3.03
2018-05-06T11:39:53.381Z,3.80
2018-05-06T11:42:55.946Z,3.53
2018-05-06T11:45:58.489Z,3.30
2018-05-06T11:49:00.966Z,3.50
2018-05-06T11:52:03.467Z,3.20
2018-05-06T11:55:05.914Z,4.13
2018-05-06T11:58:08.437Z,3.53
2018-05-06T12:01:10.948Z,3.50
2018-05-06T12:04:13.392Z,3.47
2018-05-06T12:07:15.939Z,3.20
2018-05-06T12:10:18.442Z,3.10
2018-05-06T12:13:21.136Z,3.50
2018-05-06T12:16:23.691Z,4.00
2018-05-06T12:19:26.164Z,3.87
2018-05-06T12:22:28.648Z,3.73
2018-05-06T12:25:31.128Z,3.40
2018-05-06T12:28:33.589Z,3.50
2018-05-06T12:31:36.103Z,3.57
2018-05-06T12:34:38.808Z,3.00
2018-05-06T12:37:41.740Z,3.10
2018-05-06T12:40:44.148Z,3.10
2018-05-06T12:43:46.666Z,2.70
2018-05-06T12:46:49.289Z,3.43
2018-05-06T12:49:51.772Z,3.10
2018-05-06T12:52:54.383Z,2.70
2018-05-06T12:55:56.894Z,3.20
2018-05-06T12:58:59.404Z,3.13
2018-05-06T13:02:02.090Z,2.50
2018-05-06T13:05:04.627Z,2.47
2018-05-06T13:08:07.182Z,3.10
2018-05-06T13:11:09.764Z,2.30
2018-05-06T13:14:12.265Z,3.07
2018-05-06T13:17:14.780Z,3.40
2018-05-06T13:20:17.306Z,3.30
2018-05-06T13:23:19.917Z,2.83
2018-05-06T13:26:22.414Z,3.00
2018-05-06T13:29:24.883Z,3.30
2018-05-06T13:32:27.364Z,3.20
2018-05-06T13:35:29.833Z,3.17
2018-05-06T13:38:32.317Z,2.70
2018-05-06T13:41:34.830Z,2.93
2018-05-06T13:44:37.277Z,2.70
2018-05-06T13:47:39.766Z,2.50
2018-05-06T13:50:42.253Z,2.30
2018-05-06T13:53:44.822Z,2.40
2018-05-06T13:56:47.380Z,2.80
2018-05-06T13:59:49.840Z,2.70
2018-05-06T14:02:52.354Z,2.87
2018-05-06T14:05:54.831Z,2.20
2018-05-06T14:08:57.311Z,2.13
2018-05-06T14:11:59.785Z,1.90
2018-05-06T14:15:02.457Z,2.30
2018-05-06T14:18:04.919Z,2.40
2018-05-06T14:21:07.433Z,2.03
2018-05-06T14:24:09.897Z,2.20
2018-05-06T14:27:12.403Z,2.20
2018-05-06T14:30:14.848Z,2.20
2018-05-06T14:33:17.333Z,2.90
2018-05-06T14:36:19.880Z,2.60
2018-05-06T14:39:22.337Z,2.40
2018-05-06T14:42:24.887Z,2.97
2018-05-06T14:45:27.384Z,2.70
2018-05-06T14:48:29.958Z,2.90
2018-05-06T14:51:32.448Z,2.70
2018-05-06T14:54:35.016Z,2.30
2018-05-06T14:57:37.452Z,2.43
2018-05-06T15:00:40.040Z,2.70
2018-05-06T15:03:42.682Z,2.23
2018-05-06T15:06:45.165Z,2.47
2018-05-06T15:09:47.643Z,2.80
2018-05-06T15:12:50.120Z,3.00
2018-05-06T15:15:52.728Z,2.87
2018-05-06T15:18:55.220Z,2.60
2018-05-06T15:21:57.750Z,2.30
2018-05-06T15:25:00.267Z,2.40
2018-05-06T15:28:02.786Z,2.63
2018-05-06T15:31:05.297Z,2.80
2018-05-06T15:34:07.784Z,3.10
2018-05-06T15:37:10.235Z,3.73
2018-05-06T15:40:13.326Z,2.80
2018-05-06T15:43:15.804Z,3.00
2018-05-06T15:46:18.296Z,3.03
2018-05-06T15:49:20.750Z,2.60
2018-05-06T15:52:23.216Z,2.50
2018-05-06T15:55:25.710Z,2.80
2018-05-06T15:58:28.221Z,2.67
2018-05-06T16:01:30.730Z,3.03
2018-05-06T16:04:33.187Z,2.60
2018-05-06T16:07:35.744Z,2.83
2018-05-06T16:10:38.359Z,2.90
2018-05-06T16:13:40.974Z,2.60
2018-05-06T16:16:43.447Z,2.60
2018-05-06T16:19:46.110Z,2.80
2018-05-06T16:22:48.566Z,3.00
2018-05-06T16:25:51.115Z,2.70
2018-05-06T16:28:53.586Z,2.77
2018-05-06T16:31:56.129Z,2.63
2018-05-06T16:34:58.687Z,2.43
2018-05-06T16:38:01.201Z,2.50
2018-05-06T16:41:03.720Z,2.73
2018-05-06T16:44:06.197Z,2.57
2018-05-06T16:47:08.705Z,2.90
2018-05-06T16:50:11.250Z,2.80
2018-05-06T16:53:13.710Z,2.60
2018-05-06T16:56:16.335Z,2.60
2018-05-06T16:59:19.676Z,2.73
2018-05-06T17:02:22.281Z,2.70
2018-05-06T17:05:24.762Z,2.57
2018-05-06T17:08:27.242Z,2.80
2018-05-06T17:11:29.760Z,2.87
2018-05-06T17:14:32.272Z,2.33
2018-05-06T17:17:34.817Z,2.17
2018-05-06T17:20:37.308Z,2.40
2018-05-06T17:23:39.867Z,2.57
2018-05-06T17:26:42.735Z,2.40
2018-05-06T17:29:45.210Z,2.40
2018-05-06T17:32:47.914Z,2.50
2018-05-06T17:35:50.488Z,2.40
2018-05-06T17:38:53.040Z,2.40
2018-05-06T17:41:55.506Z,2.70
2018-05-06T17:44:58.005Z,2.53
2018-05-06T17:48:00.624Z,2.47
2018-05-06T17:51:03.097Z,2.30
2018-05-06T17:54:05.601Z,2.50
2018-05-06T17:57:08.111Z,2.60
2018-05-06T18:00:10.594Z,2.30
2018-05-06T18:03:13.126Z,2.70
2018-05-06T18:06:15.642Z,2.40
2018-05-06T18:09:18.155Z,2.47
2018-05-06T18:12:20.610Z,2.70
2018-05-06T18:15:23.240Z,2.90
2018-05-06T18:18:25.761Z,2.90
2018-05-06T18:21:28.313Z,3.10
2018-05-06T18:24:30.815Z,2.83
2018-05-06T18:27:33.348Z,3.30
2018-05-06T18:30:35.817Z,3.37
2018-05-06T18:33:38.314Z,3.30
2018-05-06T18:36:40.807Z,3.17
2018-05-06T18:39:43.440Z,3.87
2018-05-06T18:42:45.932Z,3.80
2018-05-06T18:45:48.497Z,3.40
2018-05-06T18:48:51.031Z,3.50
2018-05-06T18:51:53.545Z,3.67
2018-05-06T18:54:56.088Z,3.40
2018-05-06T18:57:58.650Z,3.53
2018-05-06T19:01:01.146Z,3.70
2018-05-06T19:04:03.614Z,3.90
2018-05-06T19:07:06.236Z,3.33
2018-05-06T19:10:08.686Z,3.70
2018-05-06T19:13:11.182Z,3.77
2018-05-06T19:16:13.711Z,3.63
2018-05-06T19:19:16.252Z,3.70
2018-05-06T19:22:18.727Z,3.40
2018-05-06T19:25:21.237Z,3.47
2018-05-06T19:28:23.752Z,3.40
2018-05-06T19:31:26.306Z,3.80
2018-05-06T19:34:28.828Z,4.07
2018-05-06T19:37:31.408Z,3.40
2018-05-06T19:40:34.018Z,3.27
2018-05-06T19:43:36.513Z,3.33
2018-05-06T19:46:39.026Z,3.60
2018-05-06T19:49:41.507Z,3.73
2018-05-06T19:52:44.065Z,3.80
2018-05-06T19:55:46.612Z,3.57
2018-05-06T19:58:49.173Z,3.70
2018-05-06T20:01:51.659Z,3.47
2018-05-06T20:04:54.169Z,3.37
2018-05-06T20:07:56.727Z,3.40
2018-05-06T20:10:59.303Z,3.20
2018-05-06T20:14:01.956Z,3.57
2018-05-06T20:17:04.446Z,3.43
2018-05-06T20:20:06.973Z,3.60
2018-05-06T20:23:09.456Z,3.30
2018-05-06T20:26:11.974Z,3.30
2018-05-06T20:29:14.488Z,3.20
2018-05-06T20:32:17.082Z,3.33
2018-05-06T20:35:19.637Z,3.20
2018-05-06T20:38:22.322Z,3.20
2018-05-06T20:41:24.819Z,3.50
2018-05-06T20:44:27.276Z,3.70
2018-05-06T20:47:29.748Z,3.30
2018-05-06T20:50:32.279Z,3.23
2018-05-06T20:53:36.015Z,3.50
2018-05-06T20:56:38.523Z,3.40
2018-05-06T20:59:41.013Z,3.53
2018-05-06T21:02:43.549Z,3.20
2018-05-06T21:05:46.037Z,3.60
2018-05-06T21:08:48.523Z,3.20
2018-05-06T21:11:51.019Z,3.80
2018-05-06T21:14:53.556Z,3.27
2018-05-06T21:17:55.998Z,3.50
2018-05-06T21:20:58.583Z,3.20
2018-05-06T21:24:01.101Z,3.37
2018-05-06T21:27:03.709Z,3.40
2018-05-06T21:30:06.204Z,3.20
2018-05-06T21:33:08.767Z,3.80
2018-05-06T21:36:11.167Z,3.00
2018-05-06T21:39:13.733Z,3.30
2018-05-06T21:42:16.340Z,3.50
2018-05-06T21:45:18.847Z,3.27
2018-05-06T21:48:21.368Z,3.60
2018-05-06T21:51:23.923Z,3.40
2018-05-06T21:54:26.475Z,3.60
2018-05-06T21:57:28.988Z,3.53
2018-05-06T22:00:31.504Z,3.57
2018-05-06T22:03:35.183Z,3.37
2018-05-06T22:06:37.639Z,3.07
2018-05-06T22:09:40.085Z,3.60
2018-05-06T22:12:42.593Z,3.53
2018-05-06T22:15:45.078Z,3.17
2018-05-06T22:18:47.577Z,4.00
2018-05-06T22:21:50.039Z,3.07
2018-05-06T22:24:54.967Z,3.37
2018-05-06T22:27:57.532Z,3.30
2018-05-06T22:31:00.022Z,3.73
2018-05-06T22:34:02.487Z,3.40
2018-05-06T22:37:04.965Z,3.50
2018-05-06T22:40:07.437Z,3.57
2018-05-06T22:43:09.932Z,3.20
2018-05-06T22:46:12.380Z,3.40
2018-05-06T22:49:14.873Z,3.50
2018-05-06T22:52:17.335Z,3.50
2018-05-06T22:55:19.819Z,3.37
2018-05-06T22:58:22.267Z,3.47
2018-05-06T23:01:24.929Z,3.00
2018-05-06T23:04:27.412Z,3.27
2018-05-06T23:07:29.875Z,3.40
2018-05-06T23:10:32.350Z,3.00
2018-05-06T23:13:34.812Z,3.20
2018-05-06T23:16:37.265Z,3.10
2018-05-06T23:19:39.702Z,3.43
2018-05-06T23:22:42.181Z,3.20
2018-05-06T23:25:44.657Z,3.40
2018-05-06T23:28:47.138Z,3.47
2018-05-06T23:31:49.686Z,3.80
2018-05-06T23:34:52.139Z,3.50
2018-05-06T23:37:54.623Z,3.27
2018-05-06T23:40:57.112Z,3.33
2018-05-06T23:43:59.621Z,3.20
2018-05-06T23:47:02.160Z,3.03
2018-05-06T23:50:04.809Z,3.60
2018-05-06T23:53:07.328Z,3.27
2018-05-06T23:56:09.789Z,3.20
2018-05-06T23:59:12.223Z,3.10
